Time;durP1;ratioP1;P1;durP2;ratioP2;P2;SDS_P1;SDS_P2;PMS_P1;PMS_P2;Temp;Humidity;BMP_temperature;BMP_pressure;BME280_temperature;BME280_humidity;BME280_pressure;Samples;Min_cycle;Max_cycle;Signal;HPM_P1;HPM_P2
2023/08/09 00:00:08;;;;;;;4.07;3.30;;;;;;;15.72;76.06;100578.44;687909;28;988;-77
2023/08/09 00:00:31;;;;;;;4.60;3.40;;;;;;;15.67;76.01;100577.56;684939;28;1485;-77
2023/08/09 00:00:52;;;;;;;4.20;3.33;;;;;;;15.65;76.07;100571.41;682550;28;1225;-77
2023/08/09 00:01:13;;;;;;;4.40;3.50;;;;;;;15.70;76.06;100577.56;685116;28;1096;-76
2023/08/09 00:01:34;;;;;;;3.90;3.40;;;;;;;15.69;76.06;100573.19;682519;28;1122;-76
2023/08/09 00:02:03;;;;;;;4.43;3.55;;;;;;;15.68;76.15;100576.69;681707;29;1209;-76
2023/08/09 00:02:24;;;;;;;4.40;3.30;;;;;;;15.71;76.16;100579.31;683743;28;1214;-76
2023/08/09 00:02:45;;;;;;;4.90;3.70;;;;;;;15.71;75.97;100580.22;685066;28;1010;-77
2023/08/09 00:03:06;;;;;;;4.57;3.55;;;;;;;15.74;76.08;100584.59;680243;29;1982;-76
2023/08/09 00:03:26;;;;;;;4.50;3.67;;;;;;;15.72;75.93;100581.06;682817;28;1170;-77
2023/08/09 00:03:48;;;;;;;4.30;3.67;;;;;;;15.71;76.06;100580.22;682884;28;1043;-77
2023/08/09 00:04:09;;;;;;;4.70;3.83;;;;;;;15.69;76.02;100586.34;685897;28;1386;-76
2023/08/09 00:04:29;;;;;;;4.47;3.85;;;;;;;15.71;75.97;100589.84;683026;28;1080;-76
2023/08/09 00:04:50;;;;;;;4.60;3.97;;;;;;;15.66;76.05;100578.44;682767;28;1112;-76
2023/08/09 00:05:10;;;;;;;4.85;3.92;;;;;;;15.71;76.15;100589.84;684837;28;1472;-77
2023/08/09 00:05:31;;;;;;;4.85;3.90;;;;;;;15.71;76.00;100592.47;684856;28;1089;-76
2023/08/09 00:05:52;;;;;;;4.60;3.57;;;;;;;15.71;76.27;100589.84;682402;29;936;-77
2023/08/09 00:06:12;;;;;;;4.70;3.40;;;;;;;15.71;76.03;100589.84;682210;29;1620;-76
2023/08/09 00:06:33;;;;;;;4.30;3.22;;;;;;;15.72;76.16;100596.84;682256;29;1909;-76
2023/08/09 00:06:54;;;;;;;4.23;3.40;;;;;;;15.67;76.14;100582.81;682438;28;1137;-77
2023/08/09 00:07:14;;;;;;;4.03;3.60;;;;;;;15.67;76.16;100577.56;682531;28;1247;-77
2023/08/09 00:07:35;;;;;;;4.40;3.60;;;;;;;15.70;76.19;100588.97;684961;28;1513;-76
2023/08/09 00:07:56;;;;;;;4.70;3.70;;;;;;;15.68;76.13;100579.31;687844;28;788;-77
2023/08/09 00:08:16;;;;;;;4.83;3.83;;;;;;;15.67;76.17;100588.94;682279;29;1081;-76
2023/08/09 00:08:38;;;;;;;7.50;4.30;;;;;;;15.73;75.96;100588.97;684885;28;1649;-76
2023/08/09 00:08:58;;;;;;;7.68;4.30;;;;;;;15.67;75.98;100586.31;687457;28;835;-76
2023/08/09 00:09:20;;;;;;;7.18;3.97;;;;;;;15.69;75.87;100591.59;690540;28;1095;-76
2023/08/09 00:09:41;;;;;;;4.60;3.60;;;;;;;15.66;76.06;100583.69;689689;28;1035;-76
2023/08/09 00:10:03;;;;;;;4.05;3.55;;;;;;;15.71;75.98;100596.00;685387;28;1379;-77
2023/08/09 00:10:25;;;;;;;4.20;3.60;;;;;;;15.63;76.09;100584.56;685450;28;1472;-76
2023/08/09 00:10:45;;;;;;;3.92;3.50;;;;;;;15.67;76.14;100594.19;685399;28;2250;-77
2023/08/09 00:11:07;;;;;;;4.40;3.70;;;;;;;15.63;76.04;100590.69;685095;28;1091;-76
2023/08/09 00:11:28;;;;;;;4.13;3.70;;;;;;;15.63;76.19;100588.06;679794;28;1281;-76
2023/08/09 00:11:49;;;;;;;4.53;3.80;;;;;;;15.62;76.18;100586.28;680367;28;2004;-76
2023/08/09 00:12:10;;;;;;;4.50;3.90;;;;;;;15.69;76.08;100589.84;684067;28;1158;-77
2023/08/09 00:12:31;;;;;;;4.47;3.97;;;;;;;15.73;76.12;100588.13;685159;28;961;-76
2023/08/09 00:12:52;;;;;;;4.60;4.10;;;;;;;15.76;75.93;100598.63;688937;28;1412;-76
2023/08/09 00:13:13;;;;;;;5.00;4.40;;;;;;;15.77;75.94;100595.13;692411;28;1068;-76
2023/08/09 00:13:34;;;;;;;5.32;4.40;;;;;;;15.83;75.71;100599.53;682479;29;1166;-76
2023/08/09 00:13:54;;;;;;;5.40;4.50;;;;;;;15.79;75.93;100595.16;683452;28;1186;-77
2023/08/09 00:14:16;;;;;;;5.70;4.50;;;;;;;15.79;75.97;100597.78;682355;28;1136;-76
2023/08/09 00:14:37;;;;;;;5.90;4.70;;;;;;;15.76;75.68;100582.84;687551;28;1335;-77
2023/08/09 00:14:58;;;;;;;6.70;4.60;;;;;;;15.75;75.64;100586.34;685076;28;1539;-77
2023/08/09 00:15:18;;;;;;;6.50;4.38;;;;;;;15.75;75.56;100591.63;690233;28;1082;-77
2023/08/09 00:15:39;;;;;;;6.18;4.10;;;;;;;15.77;75.61;100595.13;686995;28;1144;-77
2023/08/09 00:16:00;;;;;;;5.60;4.20;;;;;;;15.82;75.64;100609.19;685117;28;1310;-77
2023/08/09 00:16:21;;;;;;;5.90;4.32;;;;;;;15.78;75.71;100596.03;689941;28;1252;-76
2023/08/09 00:16:41;;;;;;;5.88;4.40;;;;;;;15.76;75.67;100590.75;687681;28;1078;-77
2023/08/09 00:17:02;;;;;;;6.60;4.30;;;;;;;15.76;75.61;100594.22;687659;28;1511;-77
2023/08/09 00:17:23;;;;;;;6.23;4.23;;;;;;;15.75;75.62;100591.63;690300;28;1181;-77
2023/08/09 00:17:44;;;;;;;6.25;4.13;;;;;;;15.77;75.80;100595.13;684818;28;1102;-76
2023/08/09 00:18:05;;;;;;;4.90;4.15;;;;;;;15.78;75.66;100599.50;682309;29;1796;-76
2023/08/09 00:18:25;;;;;;;5.20;4.40;;;;;;;15.74;75.70;100592.50;677140;29;1022;-77
2023/08/09 00:18:46;;;;;;;5.95;4.30;;;;;;;15.78;75.66;100602.13;682195;29;1045;-77
2023/08/09 00:19:07;;;;;;;7.55;4.57;;;;;;;15.78;75.59;100598.66;687637;28;1100;-76
2023/08/09 00:19:28;;;;;;;8.70;4.50;;;;;;;15.82;75.49;100600.41;684614;28;1040;-77
2023/08/09 00:19:48;;;;;;;8.07;4.82;;;;;;;15.81;75.55;100602.19;679573;29;1191;-77
2023/08/09 00:20:11;;;;;;;6.88;4.93;;;;;;;15.77;75.83;100605.66;680153;29;993;-77
2023/08/09 00:20:32;;;;;;;5.68;4.85;;;;;;;15.70;75.61;100603.88;677013;29;1621;-77
2023/08/09 00:20:53;;;;;;;6.25;4.78;;;;;;;15.68;75.71;100603.00;682344;28;959;-78
2023/08/09 00:21:13;;;;;;;5.90;4.50;;;;;;;15.68;75.84;100598.59;685407;28;1291;-77
2023/08/09 00:21:34;;;;;;;6.97;4.88;;;;;;;15.70;75.89;100603.88;689891;28;1333;-77
2023/08/09 00:21:55;;;;;;;7.10;5.30;;;;;;;15.68;75.94;100601.22;688771;28;1121;-76
2023/08/09 00:22:16;;;;;;;7.82;5.53;;;;;;;15.67;75.82;100599.47;679663;29;1112;-76
2023/08/09 00:22:37;;;;;;;6.85;5.43;;;;;;;15.69;75.93;100612.63;680825;29;1439;-77
2023/08/09 00:22:58;;;;;;;6.28;5.18;;;;;;;15.59;76.03;100599.44;688011;28;1367;-76
2023/08/09 00:23:21;;;;;;;5.88;5.20;;;;;;;15.59;75.97;100594.19;691649;28;1210;-77
2023/08/09 00:23:41;;;;;;;6.25;5.30;;;;;;;15.61;76.15;100600.31;688534;28;1975;-76
2023/08/09 00:24:03;;;;;;;7.13;5.17;;;;;;;15.72;75.93;100617.91;688667;28;1025;-76
2023/08/09 00:24:25;;;;;;;7.07;4.95;;;;;;;15.61;75.94;100595.06;682347;28;1135;-77
2023/08/09 00:24:45;;;;;;;6.80;4.70;;;;;;;15.58;76.12;100595.06;684550;28;1962;-77
2023/08/09 00:25:09;;;;;;;6.47;4.97;;;;;;;15.65;76.06;100606.47;685037;28;1123;-76
2023/08/09 00:25:29;;;;;;;6.63;5.03;;;;;;;15.58;76.14;100605.59;679569;28;1013;-76
2023/08/09 00:25:50;;;;;;;7.00;4.90;;;;;;;15.63;76.03;100614.34;681653;29;1383;-77
2023/08/09 00:26:11;;;;;;;8.70;5.10;;;;;;;15.58;76.11;100602.97;689059;28;1102;-77
2023/08/09 00:26:31;;;;;;;8.60;5.18;;;;;;;15.64;76.29;100612.63;687726;28;1985;-77
2023/08/09 00:26:52;;;;;;;8.40;5.50;;;;;;;15.58;76.19;100602.06;688953;28;1393;-76
2023/08/09 00:27:13;;;;;;;6.60;5.43;;;;;;;15.53;76.16;100594.16;687565;28;1334;-77
2023/08/09 00:27:34;;;;;;;6.70;5.68;;;;;;;15.58;76.21;100605.59;684403;28;1189;-77
2023/08/09 00:27:55;;;;;;;6.50;5.50;;;;;;;15.59;76.06;100607.34;687324;28;1604;-77
2023/08/09 00:28:15;;;;;;;6.50;5.35;;;;;;;15.56;76.12;100599.41;690016;28;1251;-78
2023/08/09 00:28:36;;;;;;;6.40;4.90;;;;;;;15.57;76.15;100606.47;687529;28;1025;-76
2023/08/09 00:28:57;;;;;;;6.65;5.18;;;;;;;15.58;76.19;100610.84;684944;28;1188;-78
2023/08/09 00:29:17;;;;;;;7.20;5.30;;;;;;;15.53;76.23;100602.03;687664;28;1213;-76
2023/08/09 00:29:38;;;;;;;6.65;5.25;;;;;;;15.54;76.13;100602.94;690158;28;995;-76
2023/08/09 00:29:59;;;;;;;6.93;5.30;;;;;;;15.52;76.13;100594.13;689491;28;873;-76
2023/08/09 00:30:20;;;;;;;8.13;5.40;;;;;;;15.51;76.20;100593.28;689278;28;1065;-76
2023/08/09 00:30:40;;;;;;;8.20;5.50;;;;;;;15.56;76.16;100595.94;682038;28;1529;-78
2023/08/09 00:31:02;;;;;;;8.93;5.30;;;;;;;15.51;76.30;100588.03;682450;29;771;-78
2023/08/09 00:31:23;;;;;;;8.20;5.20;;;;;;;15.53;76.38;100595.91;684878;28;1056;-78
2023/08/09 00:31:44;;;;;;;8.20;4.90;;;;;;;15.52;76.25;100597.66;684295;28;1143;-79
2023/08/09 00:32:04;;;;;;;6.73;4.87;;;;;;;15.54;76.23;100588.03;685074;28;1186;-78
2023/08/09 00:32:25;;;;;;;5.82;4.90;;;;;;;15.54;76.18;100593.28;682086;29;1632;-79
2023/08/09 00:32:46;;;;;;;5.75;5.00;;;;;;;15.51;76.23;100598.53;684974;28;1028;-79
2023/08/09 00:33:07;;;;;;;5.75;4.95;;;;;;;15.48;76.14;100587.97;687643;28;1539;-78
2023/08/09 00:33:27;;;;;;;6.10;5.00;;;;;;;15.51;76.16;100590.66;687687;28;1115;-77
2023/08/09 00:33:48;;;;;;;6.33;5.00;;;;;;;15.54;76.33;100592.41;683039;28;1206;-77
2023/08/09 00:34:10;;;;;;;6.50;5.18;;;;;;;15.52;76.32;100589.78;677114;29;1052;-77
2023/08/09 00:34:31;;;;;;;6.32;5.10;;;;;;;15.51;76.14;100582.75;679552;29;1664;-77
2023/08/09 00:34:51;;;;;;;6.07;5.10;;;;;;;15.54;76.15;100590.66;683791;28;1394;-76
2023/08/09 00:35:12;;;;;;;5.60;4.65;;;;;;;15.51;76.25;100590.66;687090;28;1048;-76
2023/08/09 00:35:33;;;;;;;6.35;4.85;;;;;;;15.48;76.20;100577.47;681647;28;1631;-76
2023/08/09 00:35:54;;;;;;;6.57;4.70;;;;;;;15.59;76.29;100602.09;679229;28;1144;-76
2023/08/09 00:36:15;;;;;;;6.60;4.85;;;;;;;15.51;76.18;100577.50;676965;29;1248;-78
2023/08/09 00:36:37;;;;;;;5.78;4.40;;;;;;;15.57;76.27;100593.31;677284;29;1565;-77
2023/08/09 00:36:57;;;;;;;5.13;4.35;;;;;;;15.57;76.28;100593.31;683393;28;1241;-77
2023/08/09 00:37:19;;;;;;;5.55;4.57;;;;;;;15.61;76.13;100599.47;688585;28;1079;-76
2023/08/09 00:37:39;;;;;;;6.95;4.85;;;;;;;15.59;76.36;100591.56;685040;28;1158;-77
2023/08/09 00:38:01;;;;;;;7.00;4.90;;;;;;;15.54;76.25;100585.38;689289;28;913;-76
2023/08/09 00:38:21;;;;;;;6.68;4.70;;;;;;;15.63;76.16;100598.56;691890;28;1183;-77
2023/08/09 00:38:43;;;;;;;6.03;4.63;;;;;;;15.65;76.03;100600.31;689579;28;1868;-77
2023/08/09 00:39:05;;;;;;;6.75;4.60;;;;;;;15.58;76.07;100595.06;684943;28;1366;-77
2023/08/09 00:39:27;;;;;;;6.15;4.28;;;;;;;15.56;76.17;100591.53;689970;28;1261;-77
2023/08/09 00:39:48;;;;;;;6.55;4.10;;;;;;;15.55;76.13;100584.50;684648;28;1253;-77
2023/08/09 00:40:11;;;;;;;6.82;4.40;;;;;;;15.58;76.17;100600.31;682331;28;1107;-77
2023/08/09 00:40:32;;;;;;;6.82;4.88;;;;;;;15.55;76.09;100589.78;682448;28;1509;-76
2023/08/09 00:40:53;;;;;;;5.45;4.90;;;;;;;15.55;76.04;100594.16;686809;28;1808;-77
2023/08/09 00:41:13;;;;;;;5.23;4.73;;;;;;;15.56;76.24;100591.53;685025;28;1067;-76
2023/08/09 00:41:34;;;;;;;4.82;4.35;;;;;;;15.57;76.13;100590.69;690443;28;1059;-77
2023/08/09 00:41:55;;;;;;;4.85;4.38;;;;;;;15.58;76.16;100600.31;684874;28;1066;-77
2023/08/09 00:42:15;;;;;;;4.80;4.30;;;;;;;15.60;76.16;100595.94;688517;28;1090;-77
2023/08/09 00:42:36;;;;;;;5.90;4.70;;;;;;;15.61;76.25;100588.94;687717;28;1080;-77
2023/08/09 00:42:57;;;;;;;6.18;4.88;;;;;;;15.61;76.17;100597.69;686748;28;1185;-77
2023/08/09 00:43:17;;;;;;;7.25;5.10;;;;;;;15.59;76.18;100588.03;680768;28;1686;-77
2023/08/09 00:43:38;;;;;;;7.33;4.97;;;;;;;15.62;76.13;100598.59;682202;29;1160;-76
2023/08/09 00:43:59;;;;;;;6.97;4.80;;;;;;;15.61;76.04;100595.06;685110;28;835;-76
2023/08/09 00:44:19;;;;;;;6.00;4.60;;;;;;;15.60;76.03;100597.69;684617;28;1441;-76
2023/08/09 00:44:40;;;;;;;5.38;4.53;;;;;;;15.60;76.11;100595.94;684800;28;1135;-77
2023/08/09 00:45:03;;;;;;;5.97;4.80;;;;;;;15.65;76.37;100606.47;685132;28;804;-77
2023/08/09 00:45:24;;;;;;;6.43;4.93;;;;;;;15.58;76.15;100595.06;682093;28;1123;-77
2023/08/09 00:45:46;;;;;;;6.43;4.55;;;;;;;15.62;75.94;100602.09;684202;28;1491;-77
2023/08/09 00:46:08;;;;;;;5.75;4.40;;;;;;;15.60;76.04;100597.69;683195;28;1119;-77
2023/08/09 00:46:29;;;;;;;5.35;4.50;;;;;;;15.58;76.04;100589.81;680151;28;1968;-77
2023/08/09 00:46:50;;;;;;;5.90;4.50;;;;;;;15.59;76.25;100593.28;686623;28;1188;-77
2023/08/09 00:47:11;;;;;;;6.43;4.50;;;;;;;15.58;76.04;100600.31;684283;28;1369;-77
2023/08/09 00:47:34;;;;;;;6.57;4.32;;;;;;;15.59;75.92;100593.28;683587;28;1402;-77
2023/08/09 00:47:55;;;;;;;6.40;4.40;;;;;;;15.59;76.20;100596.81;679437;29;1395;-77
2023/08/09 00:48:16;;;;;;;6.22;4.43;;;;;;;15.56;76.17;100591.53;682126;28;1163;-78
2023/08/09 00:48:38;;;;;;;6.25;4.70;;;;;;;15.62;76.20;100602.09;681785;28;1220;-77
2023/08/09 00:49:00;;;;;;;6.00;4.90;;;;;;;15.63;76.22;100592.44;685011;28;944;-77
2023/08/09 00:49:21;;;;;;;6.15;4.90;;;;;;;15.67;76.01;100598.59;687007;28;1155;-77
2023/08/09 00:49:43;;;;;;;5.95;4.68;;;;;;;15.65;76.21;100597.69;685706;28;2044;-77
2023/08/09 00:50:04;;;;;;;6.63;4.68;;;;;;;15.59;76.18;100582.78;685121;28;1003;-77
2023/08/09 00:50:26;;;;;;;6.32;4.40;;;;;;;15.64;76.13;100591.56;687550;28;1492;-77
2023/08/09 00:50:47;;;;;;;6.57;4.60;;;;;;;15.59;76.16;100580.16;687437;28;973;-77
2023/08/09 00:51:09;;;;;;;5.68;4.30;;;;;;;15.65;76.16;100593.31;695578;28;1176;-77
2023/08/09 00:51:30;;;;;;;4.97;4.35;;;;;;;15.68;76.07;100598.59;685117;28;1052;-77
2023/08/09 00:51:52;;;;;;;5.13;4.45;;;;;;;15.66;76.05;100592.44;689238;28;1720;-76
2023/08/09 00:52:15;;;;;;;5.75;4.53;;;;;;;15.63;75.97;100585.41;690171;28;1309;-76
2023/08/09 00:52:36;;;;;;;5.65;4.70;;;;;;;15.70;75.88;100595.97;692797;28;1031;-77
2023/08/09 00:52:58;;;;;;;5.60;4.80;;;;;;;15.62;75.88;100586.28;688994;28;1377;-77
2023/08/09 00:53:20;;;;;;;5.60;4.82;;;;;;;15.60;75.98;100582.78;691745;28;1087;-77
2023/08/09 00:53:41;;;;;;;5.60;4.60;;;;;;;15.65;76.10;100592.44;684706;28;1180;-77
2023/08/09 00:54:02;;;;;;;5.30;4.30;;;;;;;15.65;75.96;100595.97;679483;29;1756;-77
2023/08/09 00:54:38;;;;;;;5.38;4.13;;;;;;;15.59;76.07;100586.28;684543;28;1511;-77
2023/08/09 00:55:00;;;;;;;6.47;4.40;;;;;;;15.61;75.92;100589.81;691395;28;1470;-79
2023/08/09 00:55:21;;;;;;;7.30;4.70;;;;;;;15.61;76.07;100597.69;690890;28;1125;-77
2023/08/09 00:55:42;;;;;;;6.00;4.40;;;;;;;15.59;76.10;100585.41;686859;28;999;-76
2023/08/09 00:56:02;;;;;;;5.93;4.38;;;;;;;15.63;75.91;100601.19;682267;29;1439;-77
2023/08/09 00:56:23;;;;;;;5.40;4.20;;;;;;;15.60;75.93;100597.69;681273;28;1471;-76
2023/08/09 00:56:45;;;;;;;5.78;4.30;;;;;;;15.59;76.14;100590.66;687458;28;996;-77
2023/08/09 00:57:06;;;;;;;5.95;4.10;;;;;;;15.62;75.99;100598.59;687567;28;1406;-77
2023/08/09 00:57:27;;;;;;;6.13;4.10;;;;;;;15.64;76.04;100602.09;687011;28;1239;-77
2023/08/09 00:57:48;;;;;;;5.80;4.05;;;;;;;15.62;76.01;100593.31;681931;28;1305;-77
2023/08/09 00:58:09;;;;;;;5.30;4.20;;;;;;;15.57;76.06;100588.06;682047;29;1437;-77
2023/08/09 00:58:30;;;;;;;5.03;4.30;;;;;;;15.64;75.98;100604.72;684901;28;1919;-77
2023/08/09 00:58:51;;;;;;;6.47;4.27;;;;;;;15.61;76.16;100600.31;687560;28;989;-77
2023/08/09 00:59:11;;;;;;;6.40;4.22;;;;;;;15.58;75.96;100596.81;685852;28;1190;-77
2023/08/09 00:59:32;;;;;;;6.45;4.18;;;;;;;15.59;76.04;100590.66;688136;28;1096;-77
2023/08/09 00:59:53;;;;;;;5.20;4.20;;;;;;;15.58;76.15;100595.06;684494;28;1050;-77
2023/08/09 01:00:14;;;;;;;5.30;4.30;;;;;;;15.57;76.07;100592.41;684427;28;1151;-77
2023/08/09 01:00:35;;;;;;;5.30;4.30;;;;;;;15.62;76.02;100606.47;684722;28;1820;-77
2023/08/09 01:00:56;;;;;;;5.70;4.38;;;;;;;15.56;76.01;100590.66;687736;28;815;-77
2023/08/09 01:01:17;;;;;;;6.80;4.50;;;;;;;15.54;76.00;100589.78;682334;29;1092;-77
2023/08/09 01:01:39;;;;;;;6.38;4.30;;;;;;;15.54;75.97;100606.44;680622;28;1152;-77
2023/08/09 01:02:00;;;;;;;5.88;4.43;;;;;;;15.52;75.89;100589.78;682434;29;913;-77
2023/08/09 01:02:21;;;;;;;5.65;4.65;;;;;;;15.55;76.06;100602.94;683583;28;1641;-77
2023/08/09 01:02:41;;;;;;;7.27;5.00;;;;;;;15.53;76.02;100599.41;687396;28;1115;-76
2023/08/09 01:03:02;;;;;;;6.60;4.68;;;;;;;15.44;76.05;100591.50;687593;28;1184;-76
2023/08/09 01:03:23;;;;;;;6.40;4.50;;;;;;;15.46;76.09;100595.88;685036;28;1256;-78
2023/08/09 01:03:44;;;;;;;5.10;4.10;;;;;;;15.47;76.09;100594.13;682127;28;1270;-77
2023/08/09 01:04:06;;;;;;;5.30;4.00;;;;;;;15.45;75.96;100598.50;679730;29;1053;-77
2023/08/09 01:04:28;;;;;;;7.10;4.00;;;;;;;15.51;76.22;100602.91;682249;29;1049;-77
2023/08/09 01:04:49;;;;;;;7.18;4.07;;;;;;;15.46;76.13;100595.00;681850;29;1786;-76
2023/08/09 01:05:09;;;;;;;8.07;4.15;;;;;;;15.44;76.22;100602.00;679452;29;1988;-77
2023/08/09 01:05:42;;;;;;;6.80;4.17;;;;;;;15.46;76.08;100598.50;688208;28;1214;-77
2023/08/09 01:06:15;;;;;;;5.60;4.10;;;;;;;15.52;76.27;100605.56;684868;28;1648;-77
2023/08/09 01:06:47;;;;;;;5.30;4.20;;;;;;;15.52;76.15;100609.91;684760;28;1921;-77
2023/08/09 01:07:25;;;;;;;5.10;4.13;;;;;;;15.51;76.44;100603.78;684860;28;1123;-77
2023/08/09 01:07:53;;;;;;;5.30;3.90;;;;;;;15.48;76.33;100598.50;683002;28;1154;-77
2023/08/09 01:08:34;;;;;;;5.20;3.95;;;;;;;15.46;76.50;100600.25;685555;28;1062;-77
2023/08/09 01:09:23;;;;;;;6.32;4.20;;;;;;;15.51;76.25;100608.16;690340;28;834;-76
2023/08/09 01:09:56;;;;;;;5.88;4.03;;;;;;;15.57;76.27;100611.72;684311;28;1654;-77
2023/08/09 01:11:01;;;;;;;7.03;4.35;;;;;;;15.48;76.24;100603.75;686761;28;1645;-77
2023/08/09 01:11:36;;;;;;;6.43;4.60;;;;;;;15.54;76.25;100614.31;689276;28;1871;-77
2023/08/09 01:12:02;;;;;;;6.50;4.78;;;;;;;15.44;76.28;100594.13;685224;28;940;-78
2023/08/09 01:12:28;;;;;;;6.88;4.38;;;;;;;15.53;76.23;100599.41;684212;28;1753;-76
2023/08/09 01:12:56;;;;;;;6.75;4.22;;;;;;;15.47;76.04;100597.66;682472;28;1248;-77
2023/08/09 01:13:19;;;;;;;5.65;4.60;;;;;;;15.53;76.06;100602.03;682973;28;1150;-77
2023/08/09 01:13:41;;;;;;;6.07;4.75;;;;;;;15.44;76.09;100580.97;683058;28;1072;-77
2023/08/09 01:14:07;;;;;;;5.80;4.53;;;;;;;15.53;76.34;100603.78;677678;29;1253;-77
2023/08/09 01:14:29;;;;;;;6.10;4.22;;;;;;;15.45;76.14;100590.63;682939;28;1706;-76
2023/08/09 01:14:53;;;;;;;5.60;4.30;;;;;;;15.45;76.29;100582.72;685273;28;1366;-77
2023/08/09 01:15:18;;;;;;;5.65;4.40;;;;;;;15.47;76.10;100589.75;690033;28;1237;-77
2023/08/09 01:15:41;;;;;;;6.07;4.63;;;;;;;15.47;75.96;100592.38;683367;28;1375;-77
2023/08/09 01:16:03;;;;;;;5.40;4.40;;;;;;;15.44;76.14;100583.59;682758;28;1234;-77
2023/08/09 01:16:26;;;;;;;5.50;4.38;;;;;;;15.55;76.07;100604.69;681859;29;1257;-77
2023/08/09 01:16:48;;;;;;;6.93;4.10;;;;;;;15.55;76.08;100602.94;680729;29;985;-77
2023/08/09 01:17:13;;;;;;;7.43;4.13;;;;;;;15.48;76.08;100590.63;685345;28;1102;-77
2023/08/09 01:17:35;;;;;;;6.95;3.97;;;;;;;15.53;75.99;100595.91;685208;28;1064;-77
2023/08/09 01:17:56;;;;;;;7.30;4.05;;;;;;;15.46;75.95;100589.75;687610;28;1097;-77
2023/08/09 01:18:17;;;;;;;7.07;4.20;;;;;;;15.47;75.84;100588.84;687931;28;1214;-76
2023/08/09 01:18:41;;;;;;;7.47;4.10;;;;;;;15.44;75.93;100587.09;685040;28;1064;-77
2023/08/09 01:19:09;;;;;;;6.07;4.10;;;;;;;15.44;76.03;100584.47;678146;28;2014;-77
2023/08/09 01:20:04;;;;;;;5.35;4.00;;;;;;;15.49;76.14;100600.28;682441;28;1663;-76
2023/08/09 01:20:26;;;;;;;7.88;4.60;;;;;;;15.52;76.01;100600.28;682320;28;1418;-77
2023/08/09 01:20:49;;;;;;;6.00;4.30;;;;;;;15.47;75.87;100588.84;680143;29;1142;-77
2023/08/09 01:21:11;;;;;;;5.35;3.95;;;;;;;15.47;76.04;100594.13;677103;29;1227;-77
2023/08/09 01:21:37;;;;;;;4.82;3.60;;;;;;;15.44;75.93;100587.09;677186;29;1077;-77
2023/08/09 01:22:04;;;;;;;5.63;3.60;;;;;;;15.45;75.89;100587.97;685064;28;1868;-77
2023/08/09 01:22:35;;;;;;;5.50;3.85;;;;;;;15.46;76.06;100590.63;687091;28;1253;-77
2023/08/09 01:23:00;;;;;;;6.57;4.40;;;;;;;15.56;76.00;100606.44;685458;28;791;-77
2023/08/09 01:23:21;;;;;;;6.00;4.40;;;;;;;15.48;76.10;100596.75;685149;28;1160;-78
2023/08/09 01:23:42;;;;;;;5.83;4.33;;;;;;;15.46;76.03;100589.75;685242;28;1055;-77
2023/08/09 01:24:03;;;;;;;5.90;4.40;;;;;;;15.52;76.37;100595.03;688098;28;1253;-77
2023/08/09 01:24:24;;;;;;;6.40;4.00;;;;;;;15.45;75.93;100590.63;682417;28;1367;-77
2023/08/09 01:24:45;;;;;;;5.72;3.90;;;;;;;15.57;75.83;100603.84;682798;28;1192;-77
2023/08/09 01:25:08;;;;;;;5.43;3.75;;;;;;;15.56;75.53;100585.41;689361;28;1085;-77
2023/08/09 01:25:32;;;;;;;5.43;4.15;;;;;;;15.68;75.60;100608.25;692659;28;1080;-77
2023/08/09 01:25:53;;;;;;;5.00;4.00;;;;;;;15.66;75.65;100607.38;687716;28;1211;-77
2023/08/09 01:26:14;;;;;;;4.88;4.00;;;;;;;15.65;75.48;100590.69;690243;28;1118;-77
2023/08/09 01:26:39;;;;;;;5.78;4.10;;;;;;;15.63;75.33;100605.59;685211;28;1915;-77
2023/08/09 01:26:59;;;;;;;6.65;4.20;;;;;;;15.58;75.59;100609.94;688129;28;886;-77
2023/08/09 01:27:20;;;;;;;6.40;4.13;;;;;;;15.54;75.79;100602.94;689023;28;1217;-76
2023/08/09 01:27:41;;;;;;;5.33;4.07;;;;;;;15.47;75.67;100595.00;684082;28;1335;-76
2023/08/09 01:28:03;;;;;;;5.38;4.03;;;;;;;15.48;75.73;100606.38;685381;28;1228;-76
2023/08/09 01:28:24;;;;;;;5.78;4.15;;;;;;;15.53;75.90;100606.41;687970;28;1087;-76
2023/08/09 01:28:45;;;;;;;5.40;4.20;;;;;;;15.52;75.92;100602.03;687640;28;1560;-77
2023/08/09 01:29:07;;;;;;;5.28;4.20;;;;;;;15.46;75.91;100595.00;690657;28;1371;-77
2023/08/09 01:29:28;;;;;;;4.78;4.13;;;;;;;15.53;75.60;100615.19;690694;28;1078;-77
2023/08/09 01:29:49;;;;;;;8.47;4.30;;;;;;;15.47;76.14;100604.63;682973;28;1956;-76
2023/08/09 01:30:11;;;;;;;8.55;4.38;;;;;;;15.46;76.02;100606.41;687782;28;1214;-76
2023/08/09 01:30:31;;;;;;;8.30;4.20;;;;;;;15.49;76.14;100606.41;685422;28;989;-77
2023/08/09 01:30:52;;;;;;;5.10;3.92;;;;;;;15.49;76.16;100613.44;684943;28;1408;-77
2023/08/09 01:31:13;;;;;;;4.82;3.75;;;;;;;15.47;76.10;100609.91;686180;28;1300;-77
2023/08/09 01:31:34;;;;;;;4.90;3.80;;;;;;;15.50;76.18;100607.31;687981;28;1084;-77
2023/08/09 01:31:54;;;;;;;5.07;3.80;;;;;;;15.42;76.05;100601.13;687904;28;1080;-77
2023/08/09 01:32:15;;;;;;;5.28;4.00;;;;;;;15.43;76.11;100601.13;685362;28;1095;-77
2023/08/09 01:32:37;;;;;;;5.50;4.05;;;;;;;15.47;76.14;100607.25;690504;28;1239;-77
2023/08/09 01:32:59;;;;;;;5.65;4.18;;;;;;;15.46;76.11;100601.16;682747;28;1319;-77
2023/08/09 01:33:20;;;;;;;5.78;3.90;;;;;;;15.49;76.17;100621.31;687889;28;1135;-76
2023/08/09 01:33:40;;;;;;;6.17;4.10;;;;;;;15.45;76.18;100609.03;680009;29;1177;-77
2023/08/09 01:34:01;;;;;;;8.07;4.20;;;;;;;15.44;76.13;100599.38;682546;28;1596;-77
2023/08/09 01:34:22;;;;;;;8.48;4.40;;;;;;;15.45;75.94;100609.91;685348;28;1254;-77
2023/08/09 01:34:43;;;;;;;6.80;4.50;;;;;;;15.47;76.20;100617.78;687855;28;1156;-76
2023/08/09 01:35:05;;;;;;;5.22;4.30;;;;;;;15.47;76.05;100617.78;685033;28;1880;-76
2023/08/09 01:35:28;;;;;;;4.80;4.30;;;;;;;15.44;76.10;100612.53;679507;29;1051;-77
2023/08/09 01:35:55;;;;;;;5.25;4.22;;;;;;;15.49;76.15;100621.31;687060;28;1166;-77
2023/08/09 01:36:21;;;;;;;5.20;4.30;;;;;;;15.45;76.19;100612.53;684794;28;1434;-77
2023/08/09 01:36:50;;;;;;;4.68;4.18;;;;;;;15.48;76.14;100615.19;687748;28;1624;-77
2023/08/09 01:37:23;;;;;;;4.50;4.10;;;;;;;15.50;76.13;100623.09;685413;28;1298;-77
2023/08/09 01:37:55;;;;;;;4.72;4.10;;;;;;;15.52;75.94;100634.47;693120;28;1474;-76
2023/08/09 01:38:34;;;;;;;5.38;4.07;;;;;;;15.44;75.86;100612.53;687569;28;1132;-77
2023/08/09 01:39:00;;;;;;;5.50;3.90;;;;;;;15.41;76.11;100608.13;682518;28;1188;-77
2023/08/09 01:39:25;;;;;;;5.18;4.00;;;;;;;15.44;75.97;100608.13;687703;28;1120;-76
2023/08/09 01:39:50;;;;;;;5.28;4.10;;;;;;;15.46;75.96;100610.78;687020;28;1166;-76
2023/08/09 01:40:12;;;;;;;5.70;4.30;;;;;;;15.50;75.89;100623.09;690592;28;1095;-77
2023/08/09 01:40:33;;;;;;;5.82;4.35;;;;;;;15.53;75.92;100620.44;683881;28;1716;-77
2023/08/09 01:40:54;;;;;;;6.22;4.30;;;;;;;15.45;75.82;100619.53;682640;28;1009;-77
2023/08/09 01:41:15;;;;;;;6.60;4.30;;;;;;;15.44;75.96;100613.38;676065;28;1198;-77
2023/08/09 01:41:37;;;;;;;8.68;4.60;;;;;;;15.45;75.93;100611.66;684053;28;1405;-77
2023/08/09 01:41:58;;;;;;;8.30;4.47;;;;;;;15.51;75.87;100624.84;685378;28;800;-77
2023/08/09 01:42:20;;;;;;;8.60;4.68;;;;;;;15.52;75.89;100617.81;687810;28;1500;-77
2023/08/09 01:42:42;;;;;;;6.30;4.40;;;;;;;15.51;75.85;100622.22;684929;28;1628;-77
2023/08/09 01:43:03;;;;;;;5.35;4.30;;;;;;;15.49;75.86;100613.44;686218;28;1081;-77
2023/08/09 01:43:24;;;;;;;5.05;4.10;;;;;;;15.48;75.70;100603.75;680848;29;1108;-76
2023/08/09 01:43:47;;;;;;;5.20;4.00;;;;;;;15.49;75.91;100610.81;682211;28;1519;-77
2023/08/09 01:44:10;;;;;;;5.50;4.20;;;;;;;15.50;75.91;100612.56;682838;28;1033;-77
2023/08/09 01:44:33;;;;;;;4.90;4.20;;;;;;;15.50;75.67;100612.56;686196;28;1105;-77
2023/08/09 01:44:56;;;;;;;5.80;4.50;;;;;;;15.52;75.89;100612.53;684979;28;1884;-77
2023/08/09 01:45:19;;;;;;;6.10;4.40;;;;;;;15.52;75.67;100615.19;682079;28;1096;-77
2023/08/09 01:45:40;;;;;;;6.30;4.47;;;;;;;15.47;75.74;100613.41;684424;28;1160;-76
2023/08/09 01:46:01;;;;;;;5.80;4.28;;;;;;;15.56;75.66;100616.97;685322;28;1216;-77
2023/08/09 01:46:23;;;;;;;5.00;3.90;;;;;;;15.46;75.76;100605.50;685225;28;1299;-77
2023/08/09 01:46:44;;;;;;;4.55;4.03;;;;;;;15.53;75.80;100617.81;679832;29;1915;-77
2023/08/09 01:47:05;;;;;;;4.60;4.20;;;;;;;15.52;75.69;100616.06;679690;29;1823;-76